createdAt,value
2023-05-02T00:00:19.365Z,6.65
2023-05-02T00:01:16.893Z,6.64
2023-05-02T00:02:14.543Z,6.87
2023-05-02T00:03:12.699Z,6.58
2023-05-02T00:04:10.278Z,6.61
2023-05-02T00:05:07.951Z,6.62
2023-05-02T00:06:05.375Z,6.71
2023-05-02T00:07:03.090Z,6.41
2023-05-02T00:08:00.485Z,6.58
2023-05-02T00:08:58.003Z,6.67
2023-05-02T00:09:55.400Z,6.35
2023-05-02T00:10:52.794Z,6.36
2023-05-02T00:11:50.145Z,6.98
2023-05-02T00:12:47.518Z,6.17
2023-05-02T00:13:44.868Z,6.34
2023-05-02T00:14:42.188Z,6.65
2023-05-02T00:15:39.523Z,7.01
2023-05-02T00:16:36.883Z,6.31
2023-05-02T00:17:34.285Z,6.74
2023-05-02T00:18:31.603Z,6.05
2023-05-02T00:19:28.934Z,6.45
2023-05-02T00:20:26.557Z,6.18
2023-05-02T00:21:23.916Z,6.31
2023-05-02T00:22:21.328Z,5.90
2023-05-02T00:23:18.663Z,6.37
2023-05-02T00:24:17.523Z,6.26
2023-05-02T00:25:17.201Z,6.35
2023-05-02T00:26:14.821Z,5.95
2023-05-02T00:27:12.225Z,6.40
2023-05-02T00:28:09.547Z,6.49
2023-05-02T00:29:08.047Z,6.79
2023-05-02T00:30:06.359Z,6.36
2023-05-02T00:31:04.824Z,6.63
2023-05-02T00:32:02.244Z,6.33
2023-05-02T00:32:59.701Z,6.66
2023-05-02T00:33:57.203Z,6.63
2023-05-02T00:34:54.778Z,6.28
2023-05-02T00:35:52.672Z,6.76
2023-05-02T00:36:50.045Z,6.48
2023-05-02T00:37:47.330Z,6.49
2023-05-02T00:38:44.831Z,6.41
2023-05-02T00:39:42.256Z,6.32
2023-05-02T00:40:43.825Z,6.88
2023-05-02T00:41:41.328Z,6.67
2023-05-02T00:42:38.640Z,6.42
2023-05-02T00:43:36.711Z,6.62
2023-05-02T00:44:34.125Z,6.63
2023-05-02T00:45:31.472Z,6.76
2023-05-02T00:46:29.738Z,6.30
2023-05-02T00:47:27.496Z,6.69
2023-05-02T00:48:25.641Z,6.68
2023-05-02T00:49:23.109Z,6.76
2023-05-02T00:50:20.709Z,6.94
2023-05-02T00:51:18.337Z,6.41
2023-05-02T00:52:16.031Z,6.63
2023-05-02T00:53:13.333Z,7.04
2023-05-02T00:54:12.150Z,6.71
2023-05-02T00:55:09.472Z,6.68
2023-05-02T00:56:07.526Z,7.00
2023-05-02T00:57:04.844Z,7.13
2023-05-02T00:58:04.192Z,6.89
2023-05-02T00:59:01.654Z,7.35
2023-05-02T00:59:59.231Z,6.42
2023-05-02T01:01:09.496Z,6.20
2023-05-02T01:02:16.378Z,6.82
2023-05-02T01:03:28.174Z,6.67
2023-05-02T01:04:40.188Z,6.16
2023-05-02T01:05:46.226Z,7.07
2023-05-02T01:07:01.321Z,7.01
2023-05-02T01:08:02.994Z,6.72
2023-05-02T01:09:10.140Z,6.46
2023-05-02T01:10:26.060Z,6.99
2023-05-02T01:11:43.596Z,7.11
2023-05-02T01:12:48.347Z,7.01
2023-05-02T01:13:47.265Z,6.72
2023-05-02T01:14:47.470Z,7.22
2023-05-02T01:15:45.863Z,7.19
2023-05-02T01:16:45.773Z,7.10
2023-05-02T01:17:44.376Z,7.32
2023-05-02T01:18:43.439Z,7.60
2023-05-02T01:19:43.958Z,7.88
2023-05-02T01:20:44.973Z,7.67
2023-05-02T01:21:42.829Z,7.25
2023-05-02T01:22:41.449Z,7.61
2023-05-02T01:23:57.272Z,7.36
2023-05-02T01:24:54.672Z,7.09
2023-05-02T01:26:14.512Z,7.26
2023-05-02T01:27:23.983Z,7.53
2023-05-02T01:28:39.691Z,7.51
2023-05-02T01:29:39.151Z,7.01
2023-05-02T01:30:38.866Z,7.22
2023-05-02T01:31:38.262Z,7.29
2023-05-02T01:32:38.198Z,8.12
2023-05-02T01:33:36.950Z,7.73
2023-05-02T01:34:38.361Z,7.31
2023-05-02T01:35:38.020Z,7.97
2023-05-02T01:36:37.227Z,7.75
2023-05-02T01:37:36.959Z,6.79
2023-05-02T01:38:36.530Z,7.56
2023-05-02T01:39:37.556Z,7.30
2023-05-02T01:40:37.037Z,7.39
2023-05-02T01:41:36.399Z,7.91
2023-05-02T01:42:37.141Z,7.48
2023-05-02T01:43:36.909Z,7.88
2023-05-02T01:44:36.600Z,7.73
2023-05-02T01:45:37.547Z,7.26
2023-05-02T01:46:36.831Z,7.73
2023-05-02T01:47:36.940Z,7.41
2023-05-02T01:48:36.219Z,7.38
2023-05-02T01:49:35.292Z,7.36
2023-05-02T01:50:32.878Z,7.63
2023-05-02T01:51:35.776Z,6.94
2023-05-02T01:52:33.712Z,7.20
2023-05-02T01:53:34.960Z,7.17
2023-05-02T01:54:35.270Z,7.91
2023-05-02T01:55:36.348Z,7.83
2023-05-02T01:56:36.243Z,7.55
2023-05-02T01:57:33.578Z,7.80
2023-05-02T01:58:32.731Z,7.73
2023-05-02T01:59:31.506Z,7.49
2023-05-02T02:00:30.564Z,7.59
2023-05-02T02:01:31.148Z,7.57
2023-05-02T02:02:30.279Z,7.58
2023-05-02T02:03:30.810Z,8.03
2023-05-02T02:04:29.704Z,8.07
2023-05-02T02:05:28.663Z,7.51
2023-05-02T02:06:27.531Z,7.01
2023-05-02T02:07:24.991Z,7.20
2023-05-02T02:08:22.670Z,7.94
2023-05-02T02:09:20.895Z,7.95
2023-05-02T02:10:18.617Z,7.77
2023-05-02T02:11:20.361Z,7.68
2023-05-02T02:12:23.697Z,7.99
2023-05-02T02:13:27.709Z,8.16
2023-05-02T02:14:33.986Z,7.97
2023-05-02T02:15:34.574Z,8.06
2023-05-02T02:16:34.657Z,8.13
2023-05-02T02:17:34.909Z,8.36
2023-05-02T02:18:36.542Z,8.79
2023-05-02T02:19:34.685Z,8.02
2023-05-02T02:20:33.050Z,8.68
2023-05-02T02:21:31.409Z,8.10
2023-05-02T02:22:30.273Z,8.15
2023-05-02T02:23:30.356Z,8.11
2023-05-02T02:24:28.804Z,8.17
2023-05-02T02:25:27.501Z,8.24
2023-05-02T02:26:24.879Z,8.57
2023-05-02T02:27:22.322Z,7.81
2023-05-02T02:28:19.649Z,7.79
2023-05-02T02:29:17.027Z,7.79
2023-05-02T02:30:14.502Z,8.53
2023-05-02T02:31:11.921Z,8.59
2023-05-02T02:32:09.324Z,8.77
2023-05-02T02:33:06.711Z,8.52
2023-05-02T02:34:04.148Z,8.40
2023-05-02T02:35:03.212Z,8.54
2023-05-02T02:36:23.478Z,8.55
2023-05-02T02:37:26.621Z,8.37
2023-05-02T02:38:31.843Z,8.54
2023-05-02T02:39:37.973Z,8.61
2023-05-02T02:40:42.317Z,8.92
2023-05-02T02:41:43.599Z,8.67
2023-05-02T02:42:49.533Z,8.63
2023-05-02T02:43:46.876Z,9.12
2023-05-02T02:44:46.906Z,9.03
2023-05-02T02:45:44.216Z,9.12
2023-05-02T02:46:56.721Z,8.92
2023-05-02T02:48:13.964Z,8.74
2023-05-02T02:49:11.274Z,8.69
2023-05-02T02:50:27.932Z,8.79
2023-05-02T02:51:43.875Z,9.46
2023-05-02T02:52:47.058Z,9.04
2023-05-02T02:54:05.854Z,9.31
2023-05-02T02:55:20.001Z,8.58
2023-05-02T02:56:22.747Z,8.54
2023-05-02T02:57:20.042Z,8.42
2023-05-02T02:58:20.194Z,8.46
2023-05-02T02:59:29.603Z,8.67
2023-05-02T03:00:28.457Z,9.15
2023-05-02T03:01:28.256Z,8.62
2023-05-02T03:02:29.497Z,8.64
2023-05-02T03:03:29.299Z,8.79
2023-05-02T03:04:29.614Z,8.63
2023-05-02T03:05:27.289Z,8.54
2023-05-02T03:06:25.274Z,9.23
2023-05-02T03:07:22.783Z,9.09
2023-05-02T03:08:20.139Z,8.54
2023-05-02T03:09:18.723Z,8.36
2023-05-02T03:10:16.554Z,8.61
2023-05-02T03:11:13.861Z,9.25
2023-05-02T03:12:11.762Z,8.83
2023-05-02T03:13:09.079Z,8.35
2023-05-02T03:14:06.854Z,8.77
2023-05-02T03:15:18.431Z,8.56
2023-05-02T03:16:18.696Z,8.02
2023-05-02T03:17:16.196Z,8.29
2023-05-02T03:18:13.635Z,8.57
2023-05-02T03:19:11.521Z,8.64
2023-05-02T03:20:09.041Z,8.81
2023-05-02T03:21:06.354Z,8.94
2023-05-02T03:22:04.447Z,8.93
2023-05-02T03:23:01.816Z,9.26
2023-05-02T03:23:59.796Z,8.43
2023-05-02T03:24:57.103Z,9.37
2023-05-02T03:25:54.584Z,8.99
2023-05-02T03:26:54.363Z,8.81
2023-05-02T03:27:51.691Z,8.91
2023-05-02T03:28:50.411Z,8.54
2023-05-02T03:29:48.268Z,8.40
2023-05-02T03:30:45.713Z,8.57
2023-05-02T03:31:43.091Z,8.31
2023-05-02T03:32:40.580Z,8.19
2023-05-02T03:33:37.941Z,8.47
2023-05-02T03:34:35.310Z,8.92
2023-05-02T03:35:32.673Z,8.34
2023-05-02T03:36:30.048Z,8.41
2023-05-02T03:37:27.391Z,8.00
2023-05-02T03:38:24.772Z,8.42
2023-05-02T03:39:22.196Z,8.01
2023-05-02T03:40:21.990Z,8.96
2023-05-02T03:41:21.012Z,8.39
2023-05-02T03:42:18.308Z,8.86
2023-05-02T03:43:15.710Z,8.70
2023-05-02T03:44:13.086Z,8.65
2023-05-02T03:45:10.727Z,8.76
2023-05-02T03:46:09.783Z,8.36
2023-05-02T03:47:07.650Z,7.87
2023-05-02T03:48:05.122Z,8.22
2023-05-02T03:49:02.600Z,8.50
2023-05-02T03:50:01.181Z,8.71
2023-05-02T03:50:58.695Z,8.43
2023-05-02T03:51:56.277Z,8.70
2023-05-02T03:52:53.610Z,9.13
2023-05-02T03:53:50.975Z,8.98
2023-05-02T03:54:48.316Z,9.33
2023-05-02T03:55:45.958Z,8.59
2023-05-02T03:56:44.087Z,8.67
2023-05-02T03:57:41.448Z,9.04
2023-05-02T03:58:38.888Z,9.11
2023-05-02T03:59:36.274Z,8.95
2023-05-02T04:00:33.585Z,8.84
2023-05-02T04:01:31.676Z,8.47
2023-05-02T04:02:30.056Z,8.40
2023-05-02T04:03:29.836Z,8.52
2023-05-02T04:04:27.564Z,8.44
2023-05-02T04:05:24.870Z,8.51
2023-05-02T04:06:22.270Z,8.87
2023-05-02T04:07:19.869Z,8.56
2023-05-02T04:08:17.788Z,8.74
2023-05-02T04:09:15.121Z,8.80
2023-05-02T04:10:16.611Z,8.34
2023-05-02T04:11:14.024Z,8.99
2023-05-02T04:12:11.606Z,9.05
2023-05-02T04:13:08.980Z,8.41
2023-05-02T04:14:06.329Z,8.75
2023-05-02T04:15:03.896Z,8.34
2023-05-02T04:16:01.170Z,8.42
2023-05-02T04:16:58.514Z,8.39
2023-05-02T04:17:58.087Z,8.34
2023-05-02T04:18:55.985Z,8.37
2023-05-02T04:19:53.315Z,8.45
2023-05-02T04:20:50.726Z,8.32
2023-05-02T04:21:48.023Z,8.78
2023-05-02T04:22:47.908Z,8.77
2023-05-02T04:23:45.257Z,8.82
2023-05-02T04:24:42.583Z,8.24
2023-05-02T04:25:39.888Z,8.41
2023-05-02T04:26:37.329Z,9.03
2023-05-02T04:27:34.656Z,8.57
2023-05-02T04:28:32.089Z,8.56
2023-05-02T04:29:29.454Z,8.48
2023-05-02T04:30:26.841Z,8.42
2023-05-02T04:31:24.298Z,8.59
2023-05-02T04:32:21.753Z,7.93
2023-05-02T04:33:19.109Z,8.00
2023-05-02T04:34:16.442Z,8.65
2023-05-02T04:35:15.482Z,7.78
2023-05-02T04:36:12.870Z,8.14
2023-05-02T04:37:10.477Z,7.79
2023-05-02T04:38:08.539Z,7.84
2023-05-02T04:39:07.925Z,7.68
2023-05-02T04:40:06.272Z,8.25
2023-05-02T04:41:08.635Z,7.98
2023-05-02T04:42:07.043Z,8.16
2023-05-02T04:43:04.366Z,7.80
2023-05-02T04:44:01.700Z,7.24
2023-05-02T04:44:59.012Z,7.55
2023-05-02T04:45:56.553Z,7.67
2023-05-02T04:46:54.312Z,7.67
2023-05-02T04:47:51.711Z,7.72
2023-05-02T04:48:49.035Z,8.38
2023-05-02T04:49:46.365Z,7.92
2023-05-02T04:50:45.181Z,7.33
2023-05-02T04:51:42.845Z,7.66
2023-05-02T04:52:40.444Z,7.21
2023-05-02T04:53:37.782Z,7.46
2023-05-02T04:54:35.188Z,7.21
2023-05-02T04:55:32.476Z,7.43
2023-05-02T04:56:29.775Z,7.26
2023-05-02T04:57:27.097Z,6.92
2023-05-02T04:58:24.390Z,7.57
2023-05-02T04:59:21.814Z,7.04
2023-05-02T05:00:19.233Z,6.89
2023-05-02T05:01:16.910Z,7.54
2023-05-02T05:02:14.424Z,7.37
2023-05-02T05:03:11.912Z,7.70
2023-05-02T05:04:09.504Z,6.88
2023-05-02T05:05:07.078Z,7.23
2023-05-02T05:06:04.734Z,7.15
2023-05-02T05:07:02.107Z,6.97
2023-05-02T05:07:59.498Z,6.72
2023-05-02T05:08:56.838Z,7.33
2023-05-02T05:09:54.210Z,7.20
2023-05-02T05:10:51.810Z,6.78
2023-05-02T05:11:49.101Z,7.48
2023-05-02T05:12:46.555Z,7.07
2023-05-02T05:13:44.019Z,7.10
2023-05-02T05:14:41.358Z,7.55
2023-05-02T05:15:39.100Z,7.63
2023-05-02T05:16:37.589Z,7.55
2023-05-02T05:17:35.067Z,7.21
2023-05-02T05:18:32.867Z,7.02
2023-05-02T05:19:30.222Z,7.32
2023-05-02T05:20:27.524Z,7.06
2023-05-02T05:21:24.856Z,7.07
2023-05-02T05:22:22.299Z,7.42
2023-05-02T05:23:19.646Z,7.50
2023-05-02T05:24:17.031Z,7.51
2023-05-02T05:25:15.195Z,7.19
2023-05-02T05:26:16.580Z,7.84
2023-05-02T05:27:13.893Z,7.49
2023-05-02T05:28:11.256Z,7.24
2023-05-02T05:29:08.971Z,7.06
2023-05-02T05:30:07.065Z,7.30
2023-05-02T05:31:08.195Z,7.20
2023-05-02T05:32:08.415Z,6.90
2023-05-02T05:33:05.824Z,7.24
2023-05-02T05:34:04.580Z,6.58
2023-05-02T05:35:02.431Z,6.99
2023-05-02T05:36:06.056Z,6.89
2023-05-02T05:37:03.646Z,7.06
2023-05-02T05:38:01.069Z,6.97
2023-05-02T05:38:58.386Z,7.02
2023-05-02T05:39:55.735Z,7.18
2023-05-02T05:40:53.032Z,6.85
2023-05-02T05:41:51.101Z,6.72
2023-05-02T05:42:48.573Z,7.16
2023-05-02T05:43:45.869Z,6.55
2023-05-02T05:44:43.203Z,7.02
2023-05-02T05:45:40.545Z,6.55
2023-05-02T05:46:38.059Z,6.84
2023-05-02T05:47:35.553Z,6.72
2023-05-02T05:48:32.952Z,7.02
2023-05-02T05:49:30.845Z,7.38
2023-05-02T05:50:28.196Z,7.07
2023-05-02T05:51:27.428Z,6.99
2023-05-02T05:52:25.316Z,6.75
2023-05-02T05:53:22.752Z,6.91
2023-05-02T05:54:20.118Z,6.56
2023-05-02T05:55:17.462Z,7.10
2023-05-02T05:56:14.855Z,6.50
2023-05-02T05:57:12.142Z,7.12
2023-05-02T05:58:09.517Z,7.11
2023-05-02T05:59:06.864Z,6.47
2023-05-02T06:00:04.657Z,7.04
2023-05-02T06:01:02.240Z,6.91
2023-05-02T06:01:59.593Z,6.60
2023-05-02T06:02:57.016Z,6.46
2023-05-02T06:03:54.466Z,6.34
2023-05-02T06:04:51.880Z,6.10
2023-05-02T06:05:49.516Z,6.81
2023-05-02T06:06:46.994Z,6.81
2023-05-02T06:07:44.377Z,7.05
2023-05-02T06:08:41.747Z,7.06
2023-05-02T06:09:39.035Z,7.32
2023-05-02T06:10:36.408Z,7.21
2023-05-02T06:11:33.744Z,6.48
2023-05-02T06:12:31.229Z,6.95
2023-05-02T06:13:28.587Z,6.77
2023-05-02T06:14:26.784Z,6.72
2023-05-02T06:15:24.279Z,7.00
2023-05-02T06:16:21.860Z,6.65
2023-05-02T06:17:19.197Z,6.63
2023-05-02T06:18:16.700Z,6.61
2023-05-02T06:19:14.950Z,6.47
2023-05-02T06:20:12.521Z,6.53
2023-05-02T06:21:09.944Z,6.48
2023-05-02T06:22:07.224Z,6.35
2023-05-02T06:23:04.547Z,6.51
2023-05-02T06:24:02.143Z,6.26
2023-05-02T06:25:00.190Z,5.86
2023-05-02T06:26:01.340Z,6.30
2023-05-02T06:26:58.862Z,6.21
2023-05-02T06:27:56.215Z,6.12
2023-05-02T06:28:54.615Z,6.67
2023-05-02T06:29:52.538Z,6.34
2023-05-02T06:30:56.709Z,6.36
2023-05-02T06:31:57.226Z,6.44
2023-05-02T06:32:54.718Z,7.27
2023-05-02T06:33:52.589Z,7.46
2023-05-02T06:34:49.999Z,7.05
2023-05-02T06:35:51.118Z,7.08
2023-05-02T06:36:48.402Z,7.39
2023-05-02T06:37:45.702Z,7.29
2023-05-02T06:38:43.043Z,7.38
2023-05-02T06:39:40.334Z,7.60
2023-05-02T06:40:37.778Z,7.54
2023-05-02T06:41:35.109Z,7.00
2023-05-02T06:42:32.505Z,7.09
2023-05-02T06:43:29.939Z,6.83
2023-05-02T06:44:27.274Z,6.00
2023-05-02T06:45:24.612Z,6.25
2023-05-02T06:46:22.032Z,6.15
2023-05-02T06:47:19.371Z,5.54
2023-05-02T06:48:16.722Z,5.78
2023-05-02T06:49:13.988Z,5.96
2023-05-02T06:50:11.599Z,5.91
2023-05-02T06:51:08.893Z,5.44
2023-05-02T06:52:06.295Z,5.20
2023-05-02T06:53:05.401Z,5.09
2023-05-02T06:54:02.740Z,5.38
2023-05-02T06:55:00.187Z,5.63
2023-05-02T06:55:57.804Z,5.17
2023-05-02T06:56:55.237Z,5.02
2023-05-02T06:57:53.026Z,5.04
2023-05-02T06:58:51.013Z,4.68
2023-05-02T06:59:48.366Z,4.80
2023-05-02T07:00:45.735Z,4.79
2023-05-02T07:01:46.136Z,4.64
2023-05-02T07:02:44.650Z,4.59
2023-05-02T07:03:42.037Z,4.45
2023-05-02T07:04:39.453Z,4.36
2023-05-02T07:05:37.031Z,4.18
2023-05-02T07:06:34.452Z,4.46
2023-05-02T07:07:32.440Z,4.70
2023-05-02T07:08:29.704Z,4.20
2023-05-02T07:09:27.092Z,4.62
2023-05-02T07:10:24.412Z,4.39
2023-05-02T07:11:23.586Z,4.49
2023-05-02T07:12:21.498Z,4.39
2023-05-02T07:13:18.853Z,4.28
2023-05-02T07:14:16.168Z,4.21
2023-05-02T07:15:13.969Z,4.30
2023-05-02T07:16:11.518Z,3.95
2023-05-02T07:17:09.706Z,4.05
2023-05-02T07:18:07.320Z,3.67
2023-05-02T07:19:06.834Z,3.83
2023-05-02T07:20:04.588Z,3.50
2023-05-02T07:21:02.094Z,3.74
2023-05-02T07:21:59.451Z,3.85
2023-05-02T07:22:56.742Z,3.86
2023-05-02T07:23:55.583Z,4.04
2023-05-02T07:24:59.559Z,3.63
2023-05-02T07:25:56.952Z,3.29
2023-05-02T07:26:54.289Z,3.72
2023-05-02T07:27:51.591Z,3.88
2023-05-02T07:28:49.059Z,3.88
2023-05-02T07:29:46.368Z,3.49
2023-05-02T07:30:43.675Z,3.37
2023-05-02T07:31:41.004Z,3.54
2023-05-02T07:32:38.398Z,3.55
2023-05-02T07:33:35.728Z,3.61
2023-05-02T07:34:33.065Z,3.58
2023-05-02T07:35:30.402Z,3.59
2023-05-02T07:36:28.192Z,3.34
2023-05-02T07:37:25.513Z,3.28
2023-05-02T07:38:22.875Z,3.44
2023-05-02T07:39:20.211Z,3.40
2023-05-02T07:40:18.348Z,3.61
2023-05-02T07:41:15.708Z,3.58
2023-05-02T07:42:13.104Z,3.60
2023-05-02T07:43:11.331Z,3.33
2023-05-02T07:44:09.072Z,3.52
2023-05-02T07:45:07.196Z,3.13
2023-05-02T07:46:06.082Z,3.59
2023-05-02T07:47:03.481Z,3.21
2023-05-02T07:48:01.561Z,3.13
2023-05-02T07:48:58.949Z,2.90
2023-05-02T07:49:56.405Z,3.01
2023-05-02T07:50:53.739Z,3.29
2023-05-02T07:51:51.009Z,3.16
2023-05-02T07:52:48.383Z,3.26
2023-05-02T07:53:45.945Z,3.17
2023-05-02T07:54:43.282Z,3.02
2023-05-02T07:55:40.751Z,3.39
2023-05-02T07:56:38.052Z,3.02
2023-05-02T07:57:35.356Z,2.95
2023-05-02T07:58:32.660Z,2.83
2023-05-02T07:59:31.393Z,3.30
2023-05-02T08:00:28.706Z,3.28
2023-05-02T08:01:26.100Z,3.19
2023-05-02T08:02:24.087Z,2.98
2023-05-02T08:03:21.884Z,3.27
2023-05-02T08:04:19.519Z,3.40
2023-05-02T08:05:17.349Z,3.40
2023-05-02T08:06:14.748Z,4.09
2023-05-02T08:07:12.100Z,4.72
2023-05-02T08:08:09.650Z,4.90
2023-05-02T08:09:07.089Z,5.15
2023-05-02T08:10:05.533Z,4.33
2023-05-02T08:11:03.014Z,4.14
2023-05-02T08:12:02.637Z,4.63
2023-05-02T08:12:59.970Z,4.15
2023-05-02T08:13:57.287Z,4.13
2023-05-02T08:14:54.622Z,3.96
2023-05-02T08:15:52.074Z,3.36
2023-05-02T08:16:49.414Z,3.40
2023-05-02T08:17:46.896Z,3.58
2023-05-02T08:18:44.229Z,3.17
2023-05-02T08:19:41.513Z,3.23
2023-05-02T08:20:38.883Z,3.21
2023-05-02T08:21:36.370Z,3.00
2023-05-02T08:22:33.749Z,3.60
2023-05-02T08:23:31.447Z,3.02
2023-05-02T08:24:29.470Z,3.21
2023-05-02T08:25:26.797Z,2.83
2023-05-02T08:26:24.862Z,3.18
2023-05-02T08:27:22.236Z,3.18
2023-05-02T08:28:19.854Z,2.89
2023-05-02T08:29:17.265Z,3.12
2023-05-02T08:30:14.702Z,2.98
2023-05-02T08:31:12.091Z,3.37
2023-05-02T08:32:09.497Z,3.27
2023-05-02T08:33:07.010Z,3.17
2023-05-02T08:34:04.337Z,3.46
2023-05-02T08:35:02.677Z,3.29
2023-05-02T08:36:00.355Z,3.43
2023-05-02T08:36:58.578Z,3.05
2023-05-02T08:37:56.337Z,3.32
2023-05-02T08:38:53.588Z,3.42
2023-05-02T08:39:50.881Z,3.01
2023-05-02T08:40:48.342Z,3.60
2023-05-02T08:41:45.755Z,3.26
2023-05-02T08:42:44.914Z,3.11
2023-05-02T08:43:42.668Z,3.16
2023-05-02T08:44:40.060Z,3.10
2023-05-02T08:45:41.875Z,3.17
2023-05-02T08:46:41.898Z,3.29
2023-05-02T08:47:40.681Z,3.31
2023-05-02T08:48:39.707Z,3.26
2023-05-02T08:49:37.189Z,3.40
2023-05-02T08:50:42.470Z,3.41
2023-05-02T08:51:42.350Z,3.05
2023-05-02T08:52:40.491Z,3.28
2023-05-02T08:53:39.100Z,3.30
2023-05-02T08:54:38.588Z,3.14
2023-05-02T08:55:39.898Z,3.19
2023-05-02T08:56:38.048Z,3.15
2023-05-02T08:57:35.428Z,3.13
2023-05-02T08:58:32.768Z,3.26
2023-05-02T08:59:30.604Z,3.37
2023-05-02T09:00:29.410Z,3.25
2023-05-02T09:01:30.845Z,3.59
2023-05-02T09:02:31.252Z,2.98
2023-05-02T09:03:36.071Z,3.24
2023-05-02T09:04:35.302Z,3.12
2023-05-02T09:05:39.655Z,3.46
2023-05-02T09:06:37.143Z,3.12
2023-05-02T09:07:47.999Z,3.24
2023-05-02T09:08:48.779Z,3.11
2023-05-02T09:09:46.381Z,3.30
2023-05-02T09:10:45.922Z,3.11
2023-05-02T09:11:46.570Z,2.99
2023-05-02T09:12:43.959Z,3.06
2023-05-02T09:13:45.909Z,3.06
2023-05-02T09:14:44.994Z,3.09
2023-05-02T09:15:42.325Z,3.01
2023-05-02T09:16:40.654Z,2.98
2023-05-02T09:17:45.259Z,3.04
2023-05-02T09:18:46.914Z,3.13
2023-05-02T09:19:44.301Z,3.18
2023-05-02T09:20:41.687Z,3.18
2023-05-02T09:21:43.374Z,3.01
2023-05-02T09:22:49.480Z,3.34
2023-05-02T09:23:48.589Z,3.31
2023-05-02T09:24:54.281Z,3.52
2023-05-02T09:25:51.746Z,3.09
2023-05-02T09:26:59.670Z,2.95
2023-05-02T09:27:57.065Z,3.00
2023-05-02T09:28:55.521Z,3.26
2023-05-02T09:29:52.862Z,2.99
2023-05-02T09:30:50.278Z,2.86
2023-05-02T09:31:55.675Z,3.09
2023-05-02T09:32:57.096Z,3.12
2023-05-02T09:33:55.059Z,2.86
2023-05-02T09:35:24.428Z,3.38
2023-05-02T09:36:22.035Z,3.33
2023-05-02T09:37:35.061Z,2.96
2023-05-02T09:38:32.501Z,3.13
2023-05-02T09:39:29.909Z,3.25
2023-05-02T09:40:28.088Z,2.92
2023-05-02T09:41:25.637Z,2.95
2023-05-02T09:42:31.344Z,3.05
2023-05-02T09:43:28.686Z,2.88
2023-05-02T09:44:27.162Z,2.86
2023-05-02T09:45:26.063Z,3.10
2023-05-02T09:46:23.779Z,2.91
2023-05-02T09:47:27.160Z,3.36
2023-05-02T09:48:25.005Z,3.21
2023-05-02T09:49:49.811Z,3.32
2023-05-02T09:50:47.207Z,3.55
2023-05-02T09:51:46.401Z,3.19
2023-05-02T09:53:01.086Z,3.21
2023-05-02T09:53:58.485Z,3.16
2023-05-02T09:54:56.556Z,3.42
2023-05-02T09:56:05.966Z,3.09
2023-05-02T09:57:03.935Z,3.33
2023-05-02T09:58:01.504Z,3.44
2023-05-02T09:59:17.247Z,3.05
2023-05-02T10:00:16.358Z,2.71
2023-05-02T10:01:20.095Z,3.03
2023-05-02T10:02:18.084Z,3.01
2023-05-02T10:03:16.753Z,3.00
2023-05-02T10:04:18.992Z,2.93
2023-05-02T10:05:17.432Z,2.95
2023-05-02T10:06:15.977Z,2.92
2023-05-02T10:07:16.356Z,3.25
2023-05-02T10:08:14.391Z,3.08
2023-05-02T10:09:15.414Z,3.06
2023-05-02T10:10:18.761Z,2.86
2023-05-02T10:11:16.104Z,3.49
2023-05-02T10:12:17.195Z,3.24
2023-05-02T10:13:18.495Z,3.39
2023-05-02T10:14:16.578Z,2.89
2023-05-02T10:15:17.044Z,2.94
2023-05-02T10:16:21.671Z,3.10
2023-05-02T10:17:31.672Z,2.93
2023-05-02T10:18:39.154Z,3.05
2023-05-02T10:19:49.049Z,3.00
2023-05-02T10:20:56.217Z,3.21
2023-05-02T10:21:53.697Z,3.28
2023-05-02T10:22:52.435Z,2.97
2023-05-02T10:23:50.209Z,3.15
2023-05-02T10:24:49.565Z,3.12
2023-05-02T10:25:47.188Z,3.25
2023-05-02T10:26:44.767Z,2.99
2023-05-02T10:27:42.224Z,2.85
2023-05-02T10:28:39.729Z,2.77
2023-05-02T10:29:39.378Z,3.28
2023-05-02T10:30:37.710Z,3.28
2023-05-02T10:31:37.726Z,2.77
2023-05-02T10:32:36.999Z,2.73
2023-05-02T10:33:35.573Z,3.03
2023-05-02T10:34:33.863Z,2.92
2023-05-02T10:35:32.188Z,2.80
2023-05-02T10:36:33.570Z,3.22
2023-05-02T10:37:35.333Z,3.04
2023-05-02T10:38:33.759Z,2.92
2023-05-02T10:39:32.311Z,3.08
2023-05-02T10:40:31.234Z,3.39
2023-05-02T10:41:31.779Z,3.06
2023-05-02T10:42:30.375Z,2.91
2023-05-02T10:43:35.387Z,2.88
2023-05-02T10:44:34.086Z,3.37
2023-05-02T10:45:35.219Z,2.86
2023-05-02T10:46:36.681Z,3.45
2023-05-02T10:47:34.156Z,2.93
2023-05-02T10:48:31.638Z,3.15
2023-05-02T10:49:29.902Z,3.22
2023-05-02T10:50:42.402Z,3.31
2023-05-02T10:51:41.411Z,2.94
2023-05-02T10:52:41.075Z,2.92
2023-05-02T10:53:39.729Z,2.97
2023-05-02T10:54:37.129Z,3.33
2023-05-02T10:55:34.553Z,2.84
2023-05-02T10:56:31.893Z,3.42
2023-05-02T10:57:29.208Z,3.41
2023-05-02T10:58:26.741Z,3.49
2023-05-02T10:59:28.182Z,3.23
2023-05-02T11:00:26.167Z,3.21
2023-05-02T11:01:29.627Z,3.08
2023-05-02T11:02:30.970Z,2.85
2023-05-02T11:03:48.022Z,3.05
2023-05-02T11:05:05.247Z,2.92
2023-05-02T11:06:07.062Z,2.83
2023-05-02T11:07:04.393Z,3.19
2023-05-02T11:08:19.351Z,2.88
2023-05-02T11:09:21.239Z,2.95
2023-05-02T11:10:18.529Z,3.28
2023-05-02T11:11:34.395Z,3.09
2023-05-02T11:12:47.908Z,3.00
2023-05-02T11:13:48.687Z,2.91
2023-05-02T11:14:48.196Z,2.89
2023-05-02T11:15:45.598Z,2.94
2023-05-02T11:17:00.892Z,3.06
2023-05-02T11:17:58.982Z,3.08
2023-05-02T11:19:00.997Z,2.98
2023-05-02T11:19:58.403Z,2.87
2023-05-02T11:21:16.587Z,2.58
2023-05-02T11:22:27.090Z,2.78
2023-05-02T11:23:27.161Z,2.79
2023-05-02T11:24:42.548Z,2.97
2023-05-02T11:25:41.889Z,2.94
2023-05-02T11:26:39.227Z,3.18
2023-05-02T11:27:43.519Z,2.99
2023-05-02T11:28:43.070Z,2.94
2023-05-02T11:29:53.008Z,2.44
2023-05-02T11:30:51.016Z,2.90
2023-05-02T11:31:55.801Z,3.03
2023-05-02T11:32:53.678Z,2.80
2023-05-02T11:34:01.134Z,2.82
2023-05-02T11:34:59.113Z,2.82
2023-05-02T11:35:59.303Z,2.92
2023-05-02T11:36:56.686Z,2.60
2023-05-02T11:37:54.129Z,3.01
2023-05-02T11:38:51.542Z,2.84
2023-05-02T11:39:49.058Z,2.96
2023-05-02T11:40:54.101Z,3.01
2023-05-02T11:41:51.911Z,3.03
2023-05-02T11:42:49.234Z,3.12
2023-05-02T11:43:46.700Z,2.95
2023-05-02T11:44:56.869Z,3.20
2023-05-02T11:45:55.383Z,3.00
2023-05-02T11:46:52.940Z,2.89
2023-05-02T11:47:51.549Z,2.78
2023-05-02T11:48:49.093Z,2.89
2023-05-02T11:49:46.487Z,3.04
2023-05-02T11:50:49.599Z,2.73
2023-05-02T11:51:47.709Z,3.07
2023-05-02T11:52:46.116Z,2.94
2023-05-02T11:53:44.462Z,2.88
2023-05-02T11:54:41.894Z,3.15
2023-05-02T11:55:44.742Z,2.88
2023-05-02T11:56:42.629Z,2.94
2023-05-02T11:57:40.578Z,2.85
2023-05-02T11:58:37.902Z,2.64
2023-05-02T11:59:51.711Z,3.00
2023-05-02T12:00:50.299Z,2.85
2023-05-02T12:01:48.307Z,2.96
2023-05-02T12:02:47.723Z,3.07
2023-05-02T12:03:45.833Z,3.08
2023-05-02T12:04:44.661Z,3.30
2023-05-02T12:05:42.191Z,2.88
2023-05-02T12:06:39.694Z,3.13
2023-05-02T12:07:43.074Z,3.03
2023-05-02T12:08:41.479Z,2.70
2023-05-02T12:09:54.110Z,2.98
2023-05-02T12:10:52.652Z,2.86
2023-05-02T12:11:53.603Z,3.03
2023-05-02T12:12:51.045Z,3.19
2023-05-02T12:13:50.113Z,3.30
2023-05-02T12:14:48.328Z,2.79
2023-05-02T12:15:45.700Z,2.58
2023-05-02T12:16:43.265Z,2.69
2023-05-02T12:17:42.043Z,2.77
2023-05-02T12:18:39.773Z,2.73
2023-05-02T12:19:38.010Z,3.05
2023-05-02T12:20:36.119Z,2.65
2023-05-02T12:21:33.917Z,2.82
2023-05-02T12:22:31.455Z,3.01
2023-05-02T12:23:28.838Z,2.73
2023-05-02T12:24:27.130Z,2.90
2023-05-02T12:25:24.615Z,2.76
2023-05-02T12:26:29.557Z,2.68
2023-05-02T12:27:27.431Z,3.01
2023-05-02T12:28:24.753Z,2.87
2023-05-02T12:29:22.047Z,2.84
2023-05-02T12:30:26.018Z,2.77
2023-05-02T12:31:23.924Z,2.88
2023-05-02T12:32:31.706Z,3.13
2023-05-02T12:33:29.102Z,3.00
2023-05-02T12:34:36.535Z,2.72
2023-05-02T12:35:34.780Z,3.21
2023-05-02T12:36:34.038Z,3.01
2023-05-02T12:37:31.454Z,3.09
2023-05-02T12:38:28.808Z,2.84
2023-05-02T12:39:35.270Z,2.81
2023-05-02T12:40:33.384Z,2.83
2023-05-02T12:41:34.752Z,2.85
2023-05-02T12:42:34.532Z,2.57
2023-05-02T12:43:51.239Z,2.75
2023-05-02T12:44:52.267Z,2.85
2023-05-02T12:45:50.882Z,3.03
2023-05-02T12:47:01.474Z,2.79
2023-05-02T12:47:58.908Z,3.05
2023-05-02T12:49:03.084Z,2.63
2023-05-02T12:50:00.594Z,2.99
2023-05-02T12:50:58.107Z,3.16
2023-05-02T12:51:58.306Z,2.87
2023-05-02T12:52:59.976Z,2.43
2023-05-02T12:53:57.271Z,2.76
2023-05-02T12:54:54.651Z,2.65
2023-05-02T12:56:01.881Z,2.78
2023-05-02T12:56:59.379Z,2.65
2023-05-02T12:58:06.916Z,2.77
2023-05-02T12:59:05.711Z,2.84
2023-05-02T13:00:03.337Z,2.93
2023-05-02T13:01:00.910Z,2.79
2023-05-02T13:01:59.014Z,2.71
2023-05-02T13:02:56.637Z,2.48
2023-05-02T13:03:54.103Z,2.74
2023-05-02T13:04:51.541Z,2.60
2023-05-02T13:05:53.755Z,2.58
2023-05-02T13:06:51.764Z,2.77
2023-05-02T13:07:49.246Z,2.43
2023-05-02T13:08:46.660Z,3.00
2023-05-02T13:09:44.042Z,2.67
2023-05-02T13:10:42.259Z,2.72
2023-05-02T13:11:39.541Z,2.50